x

Pt Arena - 19nm North Of Point Arena, Ca (46014) Wave Buoy

12:50am - Sat 25th Feb 2017 All times are PST. -8 hours from GMT.

  • Sig Wave height 6.2ft
  • Swell Direction
  • Peak Period 15s
  • Average Period 9s
  • Wind
    11mph, 16mph gusts
  • Air Temp 47°f
  • Sea Pressure 1022.5mb
  • Pt Arena - 19nm North Of Point Arena, Ca
  • Pt Arena - 19nm North Of Point Arena, Ca

More Historic Weather Station data

Upgrade to MSW Pro to gain access to the past 30 days of data for over 8000 Wavebouys and Weather Stations around the globe.

Join Pro

Comparision Forecast

View Surf forecast
   
Sat 02/25 12:50am 6ft 15s 9s 11 16 mph 1022.5mb 47f
12:40am 6ft  -  9s 9 13 mph 1022.5mb 48f
12:30am  -   -   -  7 11 mph 1022.5mb 48f
12:20am  -   -   -  4 9 mph 1022.5mb 47f
12:10am  -   -   -  7 11 mph 1022.5mb 47f
12:00am  -   -   -  7 11 mph 1022.6mb 47f
Fri 02/24 11:50pm 7ft 15s 9s 7 11 mph 1022.6mb 47f
11:40pm  -   -   -  7 11 mph 1022.8mb 47f
11:30pm  -   -   -  7 11 mph 1022.9mb 47f
11:20pm  -   -   -  7 9 mph 1023mb 47f
11:10pm  -   -   -  7 11 mph 1023mb 47f
11:00pm  -   -   -  7 11 mph 1023.1mb 47f
10:50pm 7ft 15s 9s 9 11 mph 1023.1mb 47f
10:40pm 7ft  -  9s 7 9 mph 1023.3mb 47f
10:30pm  -   -   -  4 9 mph 1023.3mb 47f
10:20pm  -   -   -  9 16 mph 1023.4mb 47f
10:10pm  -   -   -  9 13 mph 1023.5mb 47f
10:00pm  -   -   -  9 13 mph 1023.5mb 47f
9:50pm 7ft 15s 9s 4 9 mph 1023.5mb 47f
9:40pm 7ft  -  9s 4 9 mph 1023.8mb 47f
9:30pm  -   -   -  2 4 mph 1023.8mb 47f
9:20pm  -   -   -  2 4 mph 1023.8mb 47f
9:10pm  -   -   -  2 7 mph 1023.8mb 47f
9:00pm  -   -   -  4 7 mph 1023.8mb 47f
8:50pm 7ft 15s 9s 4 9 mph 1023.6mb 47f
8:40pm 7ft  -  9s 9 11 mph 1023.5mb 47f
8:30pm  -   -   -  4 9 mph 1023.6mb 47f
8:20pm  -   -   -  4 9 mph 1023.5mb 47f
8:10pm  -   -   -  4 7 mph 1023.5mb 47f
8:00pm  -   -   -  4 9 mph 1023.5mb 47f
7:50pm 7ft 15s 9s 4 9 mph 1023.4mb 47f
7:40pm 7ft  -  9s 4 7 mph 1023.5mb 47f
7:30pm  -   -   -  4 9 mph 1023.5mb 47f
7:20pm  -   -   -  4 7 mph 1023.5mb 47f
7:10pm  -   -   -  4 9 mph 1023.5mb 47f
7:00pm  -   -   -  4 9 mph 1023.5mb 47f
6:50pm 7ft 16s 9s 4 9 mph 1023.5mb 47f
6:40pm 7ft  -  9s 4 7 mph 1023.6mb 47f
6:30pm  -   -   -  4 7 mph 1023.6mb 47f
6:20pm  -   -   -  4 7 mph 1023.6mb 47f
6:10pm  -   -   -  4 7 mph 1023.6mb 47f
6:00pm  -   -   -  4 7 mph 1023.8mb 47f
5:50pm 7ft 16s 9s 4 9 mph 1023.6mb 47f
5:40pm 7ft  -  9s 7 11 mph 1023.8mb 47f
5:30pm  -   -   -  7 11 mph 1023.6mb 47f
5:20pm  -   -   -  4 7 mph 1023.8mb 47f
5:10pm  -   -   -  2 4 mph 1023.6mb 47f
5:00pm  -   -   -  2 4 mph 1023.9mb 47f
4:50pm 7ft 16s 9s 4 7 mph 1023.9mb 47f
4:40pm  -   -   -  4 7 mph 1023.9mb 47f
4:30pm  -   -   -  4 7 mph 1024mb 47f
4:20pm  -   -   -  7 9 mph 1024mb 47f
4:10pm  -   -   -  9 13 mph 1024mb 46f
4:00pm  -   -   -  13 16 mph 1024mb 46f
3:50pm 6.5ft 16s 8s 16 20 mph 1024.2mb 47f
3:40pm 6.5ft  -  8s 4 16 mph 1024.3mb 48f
3:30pm  -   -   -  4 9 mph 1024.3mb 47f
3:20pm  -   -   -  7 9 mph 1024.3mb 48f
3:10pm  -   -   -  4 9 mph 1024.3mb 48f
3:00pm  -   -   -  7 9 mph 1024.3mb 48f
2:50pm 6.5ft 16s 9s 4 9 mph 1024.5mb 48f
2:40pm 6.5ft  -  9s 7 11 mph 1024.5mb 48f
2:30pm  -   -   -  4 9 mph 1024.5mb 48f
2:20pm  -   -   -  4 9 mph 1024.5mb 48f
2:10pm  -   -   -  4 7 mph 1024.5mb 47f
2:00pm  -   -   -  2 9 mph 1024.5mb 47f
1:50pm 6ft 16s 8s 4 7 mph 1024.5mb 47f
1:40pm 6ft  -  8s 4 7 mph 1024.7mb 47f
1:30pm  -   -   -  4 7 mph 1024.8mb 47f
1:20pm  -   -   -  2 7 mph 1025mb 47f
1:10pm  -   -   -  2 4 mph 1025mb 47f
1:00pm  -   -   -  2 4 mph 1025.2mb 47f
12:50pm 6.5ft 16s 8s 2 7 mph 1025.2mb 47f
12:40pm 6.5ft  -  8s 2 4 mph 1025.3mb 47f
12:30pm  -   -   -   -  2 mph 1025.5mb 47f
12:20pm  -   -   -   -  2 mph 1025.5mb 47f
12:10pm  -   -   -  2 4 mph 1025.7mb 47f
12:00pm  -   -   -  2 7 mph 1025.8mb 47f
11:50am 7ft 16s 8s 4 7 mph 1025.8mb 46f
11:40am 7ft  -  8s 7 9 mph 1025.8mb 46f
11:30am  -   -   -  9 11 mph 1026mb 46f
11:20am  -   -   -  9 13 mph 1026mb 46f
11:10am  -   -   -  9 16 mph 1026mb 47f
11:00am  -   -   -  4 7 mph 1026mb 46f
10:50am 6ft 16s 7s 2 7 mph 1026.2mb 46f
10:40am 6ft  -  7s 2 4 mph 1026mb 46f
10:30am  -   -   -   -  4 mph 1026mb 46f
10:20am  -   -   -  2 7 mph 1026mb 45f
10:10am  -   -   -  2 4 mph 1026mb 45f
10:00am  -   -   -  4 9 mph 1026mb 45f
9:50am 6ft 9s 7s 2 9 mph 1026mb 45f
9:40am  -   -   -  2 4 mph 1026mb 45f
9:30am  -   -   -  2 7 mph 1025.8mb 45f
9:20am  -   -   -  4 7 mph 1025.7mb 45f
9:10am  -   -   -  4 7 mph 1025.7mb 46f
9:00am  -   -   -  4 9 mph 1025.5mb 46f
8:50am 6.5ft 16s 7s 4 7 mph 1025.5mb 46f
8:40am 6.5ft  -  7s 4 7 mph 1025.5mb 46f
8:30am  -   -   -  4 7 mph 1025.5mb 46f
8:20am  -   -   -  4 7 mph 1025.5mb 45f
8:10am  -   -   -  4 7 mph 1025.3mb 45f
8:00am  -   -   -  4 9 mph 1025.2mb 45f
7:50am 7ft 16s 7s 7 9 mph 1025mb 45f
7:40am  -   -   -  7 11 mph 1025mb 45f
7:30am  -   -   -  7 11 mph 1024.8mb 45f
7:20am  -   -   -  9 11 mph 1024.7mb 46f
7:10am  -   -   -  9 11 mph 1024.5mb 45f
7:00am  -   -   -  9 11 mph 1024.5mb 45f
6:50am 7.5ft 9s 7s 9 11 mph 1024.7mb 45f
6:40am 7.5ft  -  7s 9 11 mph 1024.5mb 46f
6:30am  -   -   -   -  mph 1025.1mb 46f
6:20am  -   -   -  9 13 mph 1024.5mb 46f
6:10am  -   -   -  11 13 mph 1024.7mb 46f
6:00am  -   -   -  11 13 mph 1024.5mb 46f
5:50am 7.5ft 8s 7s 11 13 mph 1024.5mb 45f
5:40am  -   -   -  11 16 mph 1024.5mb 45f
5:30am  -   -   -  11 13 mph 1024.5mb 46f
5:20am  -   -   -  11 13 mph 1024.5mb 46f
5:10am  -   -   -  11 13 mph 1024.3mb 46f
5:00am  -   -   -  11 16 mph 1024.3mb 46f
4:50am 7ft 9s 7s 11 13 mph 1024.3mb 46f
4:40am 7ft  -  7s 11 16 mph 1024.3mb 46f
4:30am  -   -   -  11 16 mph 1024.3mb 47f
4:20am  -   -   -  11 16 mph 1024.3mb 47f
4:10am  -   -   -  11 16 mph 1024.3mb 47f
4:00am  -   -   -  13 18 mph 1024.3mb 47f
3:50am 7.5ft 9s 7s 13 18 mph 1024.3mb 47f
3:40am 7.5ft  -  7s 13 18 mph 1024.2mb 47f
3:30am  -   -   -  13 18 mph 1024.2mb 47f
3:20am  -   -   -  13 18 mph 1024.3mb 47f
3:10am  -   -   -  13 18 mph 1024.5mb 47f
3:00am  -   -   -  13 20 mph 1024.8mb 47f
2:50am 7.5ft 9s 7s 13 18 mph 1024.8mb 48f
2:40am 7.5ft  -  7s 16 18 mph 1025mb 48f
2:30am  -   -   -  16 20 mph 1025mb 48f
2:20am  -   -   -  16 20 mph 1025.2mb 48f
2:10am  -   -   -  16 20 mph 1025.2mb 47f
2:00am  -   -   -  16 20 mph 1025.2mb 48f
1:50am 7ft 8s 6s 16 22 mph 1025mb 48f
1:40am 7ft  -  6s 16 20 mph 1025mb 48f
1:30am  -   -   -  16 22 mph 1025.2mb 48f
1:20am  -   -   -  16 20 mph 1025.2mb 48f
1:10am  -   -   -  18 20 mph 1025.2mb 48f
1:00am  -   -   -  18 22 mph 1025.2mb 48f
12:50am 7ft 9s 6s 18 22 mph 1025mb 48f
12:40am 7ft  -  6s 16 20 mph 1025.2mb 48f
12:30am  -   -   -  16 20 mph 1025.2mb 47f
12:20am  -   -   -  16 18 mph 1025.3mb 47f
12:10am  -   -   -  16 20 mph 1025.2mb 47f
12:00am  -   -   -  16 20 mph 1025mb 47f
Thu 02/23 11:50pm 7ft 9s 6s 16 20 mph 1025mb 47f
11:40pm  -   -   -  18 22 mph 1024.8mb 47f
11:30pm  -   -   -  18 22 mph 1024.8mb 47f
11:20pm  -   -   -  18 22 mph 1024.8mb 47f
11:10pm  -   -   -  18 22 mph 1024.8mb 47f
11:00pm  -   -   -  18 25 mph 1024.8mb 48f
10:50pm 7ft 9s 6s 18 25 mph 1024.8mb 48f
10:40pm 7ft  -  6s 18 27 mph 1024.7mb 48f
10:30pm  -   -   -  18 22 mph 1024.5mb 48f
10:20pm  -   -   -  18 25 mph 1024.5mb 49f
10:10pm  -   -   -  20 25 mph 1024.3mb 49f
10:00pm  -   -   -  20 25 mph 1024.3mb 49f
9:50pm 7.5ft 8s 6s 22 27 mph 1024.3mb 49f
9:40pm 7.5ft  -  6s 22 27 mph 1024.2mb 49f
9:30pm  -   -   -  20 27 mph 1024.2mb 49f
9:20pm  -   -   -  22 27 mph 1024mb 49f
9:10pm  -   -   -  22 27 mph 1024mb 49f
9:00pm  -   -   -  22 27 mph 1023.9mb 49f
8:50pm 7.5ft 11s 6s 22 29 mph 1023.9mb 49f
8:40pm 7.5ft  -  6s 22 27 mph 1023.9mb 49f
8:30pm  -   -   -  20 27 mph 1023.9mb 49f
8:20pm  -   -   -  22 27 mph 1023.9mb 49f
8:10pm  -   -   -  20 25 mph 1024mb 49f
8:00pm  -   -   -  20 25 mph 1024mb 49f
7:50pm 7ft 8s 6s 20 25 mph 1024mb 49f
7:40pm  -   -   -  20 27 mph 1024.2mb 49f
7:30pm  -   -   -  20 25 mph 1024mb 49f
7:20pm  -   -   -  20 25 mph 1024.2mb 49f
7:10pm  -   -   -  22 27 mph 1024mb 49f
7:00pm  -   -   -  22 27 mph 1024mb 49f
6:50pm 6.5ft 8s 6s 22 27 mph 1024mb 49f
6:40pm 6.5ft  -  6s 22 27 mph 1023.9mb 49f
6:30pm  -   -   -  22 27 mph 1023.9mb 49f
6:20pm  -   -   -  22 27 mph 1023.9mb 48f
6:10pm  -   -   -  20 27 mph 1023.9mb 48f
6:00pm  -   -   -  20 25 mph 1024mb 49f
5:50pm 6.5ft 8s 6s 20 27 mph 1024mb 49f
5:40pm  -   -   -  20 27 mph 1024mb 49f
5:20pm  -   -   -  20 27 mph 1024mb 49f
5:10pm  -   -   -  20 25 mph 1024mb 48f
5:00pm  -   -   -  20 25 mph 1023.9mb 49f
4:50pm 6.5ft 9s 6s 20 25 mph 1023.9mb 48f
4:40pm 6.5ft  -  6s 20 25 mph 1023.9mb 48f
4:30pm  -   -   -  20 27 mph 1023.9mb 48f
4:20pm  -   -   -  20 25 mph 1024mb 48f
4:10pm  -   -   -  20 25 mph 1024mb 48f
4:00pm  -   -   -  18 22 mph 1024mb 48f
3:50pm 6.5ft 8s 6s 18 22 mph 1024mb 48f
3:40pm 6.5ft  -  6s 18 25 mph 1024mb 48f
3:30pm  -   -   -  18 22 mph 1024mb 48f
3:20pm  -   -   -  18 22 mph 1024.2mb 48f
3:10pm  -   -   -  18 22 mph 1024.3mb 48f
3:00pm  -   -   -  18 25 mph 1024.3mb 47f
2:50pm 7ft  -  6s 18 22 mph 1024.3mb 48f
2:40pm 7ft 8s 6s  -  mph - -
2:30pm  -   -   -  20 22 mph 1024.5mb 48f
2:20pm  -   -   -  20 25 mph 1024.5mb 47f
2:10pm  -   -   -  20 25 mph 1024.5mb 47f
2:00pm  -   -   -  20 25 mph 1024.5mb 47f
1:50pm 7ft 9s 6s 20 25 mph 1024.5mb 47f
1:40pm 7ft  -  6s 20 25 mph 1024.7mb 47f
1:30pm  -   -   -  20 25 mph 1024.7mb 47f
1:20pm  -   -   -  20 25 mph 1024.8mb 47f
1:10pm  -   -   -  20 25 mph 1025mb 47f
1:00pm  -   -   -  20 22 mph 1025mb 47f
12:50pm 6.5ft 8s 6s 18 22 mph 1025.2mb 47f
12:40pm 6.5ft  -  6s 18 22 mph 1025.2mb 47f
12:30pm  -   -   -  18 22 mph 1025.3mb 47f
12:20pm  -   -   -  16 22 mph 1025.3mb 47f
12:10pm  -   -   -  18 22 mph 1025.5mb 47f
12:00pm  -   -   -  16 20 mph 1025.7mb 47f
11:50am 7ft 10s 7s 16 20 mph 1025.8mb 47f
11:40am 7ft  -  7s 18 25 mph 1026mb 47f
11:30am  -   -   -  18 22 mph 1026mb 47f
11:20am  -   -   -  13 20 mph 1026mb 46f
11:10am  -   -   -  16 20 mph 1026mb 46f
11:00am  -   -   -  13 18 mph 1026mb 46f
10:50am 7ft 8s 6s 13 16 mph 1026mb 46f
10:40am 7ft  -  6s 11 16 mph 1026mb 46f
10:30am  -   -   -  13 18 mph 1026mb 46f
10:20am  -   -   -  13 18 mph 1025.8mb 46f
10:10am  -   -   -  13 18 mph 1025.8mb 46f
10:00am  -   -   -  13 20 mph 1025.8mb 46f
9:50am 7ft 7s 6s 11 20 mph 1025.7mb 46f
9:40am 7ft  -  6s 11 16 mph 1025.5mb 45f
9:30am  -   -   -  11 16 mph 1025.5mb 46f
9:20am  -   -   -  11 16 mph 1025.5mb 45f
9:10am  -   -   -  13 18 mph 1025.5mb 45f
9:00am  -   -   -  11 18 mph 1025.5mb 46f
8:50am 8ft 7s 6s 11 16 mph 1025.5mb 46f
8:40am 8ft  -  6s 18 25 mph 1025.5mb 47f
8:30am  -   -   -  18 22 mph 1025.3mb 47f
8:20am  -   -   -  18 22 mph 1025.2mb 46f
8:10am  -   -   -  18 22 mph 1025.2mb 46f
8:00am  -   -   -  18 22 mph 1025.2mb 46f
7:50am 8ft 12s 6s 18 22 mph 1025mb 46f
7:40am 8ft  -  6s 18 22 mph 1025mb 46f
7:30am  -   -   -  18 25 mph 1024.8mb 46f
7:20am  -   -   -  20 27 mph 1024.7mb 46f
7:10am  -   -   -  20 27 mph 1024.7mb 46f
7:00am  -   -   -  20 27 mph 1024.5mb 46f
6:50am 7ft 8s 6s 25 36 mph 1024.5mb 45f
6:40am 7ft  -  6s 25 31 mph 1024.5mb 46f
6:30am  -   -   -  20 25 mph 1024.5mb 47f
6:20am  -   -   -  18 22 mph 1024.3mb 47f
6:10am  -   -   -  20 25 mph 1024.3mb 47f
6:00am  -   -   -  18 22 mph 1024.3mb 47f
5:50am 8ft 7s 6s 20 22 mph 1024.3mb 47f
5:40am 8ft  -  6s 18 25 mph 1024.2mb 46f
5:30am  -   -   -  16 20 mph 1024.2mb 46f
5:20am  -   -   -  18 27 mph 1024.2mb 46f
5:10am  -   -   -  20 29 mph 1024mb 47f
5:00am  -   -   -  18 25 mph 1024mb 46f
4:50am 8ft 13s 7s 22 29 mph 1024.2mb 47f
4:40am 8ft  -  7s 18 27 mph 1024mb 46f
4:30am  -   -   -  18 25 mph 1024mb 46f
4:20am  -   -   -  18 27 mph 1024mb 47f
4:10am  -   -   -  18 27 mph 1024mb 47f
4:00am  -   -   -  18 25 mph 1024mb 47f
3:50am 7.5ft 13s 7s 11 18 mph 1024mb 46f
3:40am 7.5ft  -  7s 11 16 mph 1024mb 45f
3:30am  -   -   -  11 16 mph 1024.2mb 45f
3:20am  -   -   -  11 16 mph 1024.2mb 45f
3:10am  -   -   -  13 18 mph 1024.2mb 44f
3:00am  -   -   -  16 20 mph 1024.3mb 44f
2:50am 7ft 13s 7s 11 18 mph 1024.3mb 44f
2:40am 7ft  -  7s 11 18 mph 1024.3mb 44f
2:30am  -   -   -  9 16 mph 1024.3mb 44f
2:20am  -   -   -  11 16 mph 1024.5mb 44f
2:10am  -   -   -  13 20 mph 1024.5mb 45f
2:00am  -   -   -  11 18 mph 1024.5mb 45f
1:50am 8ft 7s 7s 13 18 mph 1024.5mb 46f
12:50am 7.5ft 14s 6s 18 25 mph 1024.5mb 47f
Wed 02/22 11:50pm 8ft 14s 7s 13 18 mph 1024.5mb 46f
10:50pm 7.5ft 12s 7s 16 20 mph 1024.8mb 46f
9:50pm 8ft 10s 7s 20 29 mph 1025mb 46f
8:50pm 9ft 11s 7s 25 34 mph 1025mb 47f
7:50pm 9ft 12s 7s 27 40 mph 1024.8mb 48f
6:50pm 9.5ft 12s 7s 22 31 mph 1024.7mb 48f
5:50pm 9.5ft 13s 7s 25 31 mph 1024.7mb 49f
4:50pm 10ft 14s 7s 25 31 mph 1024.8mb 48f
3:50pm 9ft 12s 7s 20 27 mph 1024.7mb 49f
2:50pm 9.5ft 13s 8s 20 29 mph 1025.2mb 48f
1:50pm 9ft 13s 7s 13 18 mph 1025.5mb 47f
12:50pm 10ft 12s 8s 25 29 mph 1025.7mb 48f
11:50am 10ft 14s 8s 16 20 mph 1026mb 50f
10:50am 10ft 13s 8s 13 18 mph 1026.2mb 51f
9:50am 9ft 12s 8s 11 16 mph 1026.2mb 50f
8:50am 11ft 13s 8s 13 18 mph 1026.2mb 50f
7:50am 10ft 14s 8s 13 18 mph 1025.7mb 51f
6:50am 9.5ft 14s 8s 13 20 mph 1025.3mb 50f
5:50am 11ft 13s 9s 18 25 mph 1025.3mb 49f
4:50am 10.5ft 14s 8s 13 18 mph 1025.5mb 51f
2:50am 11ft 11s 9s 18 22 mph 1025.5mb 51f
2:40am 11ft  -  9s 16 20 mph 1025.5mb 51f
2:30am  -   -   -  13 18 mph 1025.3mb 51f
2:20am  -   -   -  16 20 mph 1025.5mb 51f
2:10am  -   -   -  18 20 mph 1025.5mb 51f
2:00am  -   -   -  16 20 mph 1025.3mb 51f
1:50am 10ft 15s 9s 16 20 mph 1025.5mb 51f
1:40am 10ft  -  9s 16 20 mph 1025.3mb 51f
1:30am  -   -   -  16 20 mph 1025.3mb 51f
1:20am  -   -   -  16 20 mph 1025.3mb 51f
1:10am  -   -   -  16 20 mph 1025.3mb 51f
1:00am  -   -   -  16 20 mph 1025.3mb 51f
12:50am 10ft 15s 8s 16 20 mph 1025.3mb 51f
12:40am 10ft  -  8s 16 22 mph 1025.2mb 51f
12:30am  -   -   -  16 20 mph 1025.2mb 52f
12:20am  -   -   -  16 22 mph 1025mb 52f
12:10am  -   -   -  16 20 mph 1025mb 52f
12:00am  -   -   -  16 20 mph 1025mb 51f
Tue 02/21 11:50pm 10ft 12s 9s 16 20 mph 1025mb 51f
11:40pm  -   -   -  16 20 mph 1025mb 52f
11:30pm  -   -   -  16 20 mph 1025mb 52f
11:20pm  -   -   -  16 20 mph 1025mb 52f
11:10pm  -   -   -  16 20 mph 1025mb 52f
11:00pm  -   -   -  16 20 mph 1024.8mb 52f
10:50pm 11ft 11s 8s 16 22 mph 1025mb 52f
10:40pm 11ft  -  8s 16 20 mph 1025mb 52f
10:30pm  -   -   -  16 20 mph 1025mb 52f
10:20pm  -   -   -  16 20 mph 1024.8mb 52f
10:10pm  -   -   -  13 18 mph 1024.8mb 52f
10:00pm  -   -   -  16 20 mph 1024.8mb 52f
9:50pm 10ft 10s 8s 13 20 mph 1024.8mb 52f
9:40pm 10ft  -  8s 13 18 mph 1024.7mb 52f
9:30pm  -   -   -  13 18 mph 1024.5mb 52f
9:20pm  -   -   -  13 18 mph 1024.5mb 52f
9:10pm  -   -   -  13 20 mph 1024.7mb 52f
9:00pm  -   -   -  16 20 mph 1024.5mb 52f
8:50pm 10ft 11s 8s 16 20 mph 1024.5mb 52f
8:40pm 10ft  -  8s 16 18 mph 1024.2mb 52f
8:30pm  -   -   -  13 18 mph 1024mb 53f
8:20pm  -   -   -  13 18 mph 1023.9mb 53f
8:10pm  -   -   -  13 18 mph 1024mb 53f
8:00pm  -   -   -  13 18 mph 1024mb 53f
7:50pm 10.5ft 16s 8s 13 18 mph 1023.9mb 53f
7:40pm 10.5ft  -  8s 13 18 mph 1023.9mb 53f
7:30pm  -   -   -  13 18 mph 1023.9mb 53f
7:20pm  -   -   -  13 18 mph 1023.9mb 53f
7:10pm  -   -   -  13 18 mph 1023.6mb 53f
7:00pm  -   -   -  11 16 mph 1023.6mb 53f
6:50pm 10.5ft 10s 8s 11 16 mph 1023.5mb 53f
6:40pm  -   -   -  13 18 mph 1023.5mb 53f
6:30pm  -   -   -  13 18 mph 1023.4mb 53f
6:20pm  -   -   -  13 16 mph 1023.3mb 53f
6:10pm  -   -   -  13 18 mph 1023.3mb 53f
6:00pm  -   -   -  13 16 mph 1023.1mb 53f
5:50pm 9.5ft 10s 7s 11 16 mph 1023mb 53f
5:40pm  -   -   -  11 16 mph 1023mb 53f
5:30pm  -   -   -  13 16 mph 1023mb 53f
5:20pm  -   -   -  13 16 mph 1023mb -
5:10pm  -   -   -  11 16 mph 1023mb 53f
5:00pm  -   -   -  11 16 mph 1023mb 53f
4:50pm 9.5ft 11s 8s 11 16 mph 1023mb 53f
4:40pm 9.5ft  -  8s 11 16 mph 1022.9mb 53f
4:30pm  -   -   -  11 13 mph 1022.9mb 53f
4:20pm  -   -   -  11 13 mph 1022.8mb 53f
4:10pm  -   -   -  9 13 mph 1022.8mb 53f
4:00pm  -   -   -  9 11 mph 1022.8mb 53f
3:50pm 9.5ft 10s 7s 9 11 mph 1022.9mb 53f
3:40pm 9.5ft  -  7s 9 11 mph 1022.9mb 53f
3:30pm  -   -   -  9 13 mph 1022.9mb 53f
3:20pm  -   -   -  9 13 mph 1023mb 54f
3:10pm  -   -   -  9 13 mph 1022.9mb 53f
3:00pm  -   -   -  9 13 mph 1022.8mb 54f
2:50pm 10ft 12s 8s 9 11 mph 1022.6mb 54f
2:40pm  -   -   -  7 11 mph 1022.6mb 54f
2:30pm  -   -   -  7 11 mph 1022.6mb 54f
2:20pm  -   -   -  7 9 mph 1022.6mb 54f
2:10pm  -   -   -  9 16 mph 1023.2mb 54f
2:00pm  -   -   -  7 11 mph 1022.8mb 54f
1:50pm 11ft 10s 8s 7 11 mph 1022.9mb 54f
1:40pm  -   -   -  7 11 mph 1022.9mb 54f
1:30pm  -   -   -  7 9 mph 1022.9mb 54f
1:20pm  -   -   -  7 11 mph 1023mb 54f
1:10pm  -   -   -  7 9 mph 1023mb 54f
1:00pm  -   -   -  7 9 mph 1023mb 53f
12:50pm 10.5ft 11s 8s 2 9 mph 1023.1mb 53f
12:40pm  -   -   -   -  4 mph 1023.3mb 54f
12:30pm  -   -   -   -  4 mph 1023.5mb 54f
12:20pm  -   -   -   -  4 mph 1023.5mb 53f
12:10pm  -   -   -  2 4 mph 1023.5mb 53f
12:00pm  -   -   -  2 4 mph 1023.5mb 53f
11:50am 10.5ft 11s 8s 2 7 mph 1023.5mb 53f
11:40am 10.5ft  -  8s 4 7 mph 1023.5mb 53f
11:30am  -   -   -  4 9 mph 1023.5mb 52f
11:20am  -   -   -  4 9 mph 1023.5mb 53f
11:10am  -   -   -  7 11 mph 1023.5mb 52f
11:00am  -   -   -  7 9 mph 1023.5mb 52f
10:50am 9.5ft 10s 8s 7 11 mph 1023.4mb 52f
10:40am 9.5ft  -  8s 4 9 mph 1023.1mb 53f
10:30am  -   -   -  7 11 mph 1023mb 53f
10:20am  -   -   -  9 13 mph 1022.9mb 53f
10:10am  -   -   -  9 13 mph 1022.8mb 53f
10:00am  -   -   -  9 13 mph 1022.5mb 53f
9:50am 11ft 13s 8s 9 13 mph 1022.5mb 53f
9:40am 11ft  -  8s 9 13 mph 1022.4mb 53f